Time;durP1;ratioP1;P1;durP2;ratioP2;P2;SDS_P1;SDS_P2;PMS_P1;PMS_P2;Temp;Humidity;BMP_temperature;BMP_pressure;BME280_temperature;BME280_humidity;BME280_pressure;Samples;Min_cycle;Max_cycle;Signal;HPM_P1;HPM_P2
2022/01/15 00:02:20;;;;;;;16.40;6.87;;;0.20;99.90;;;;;;5045501;28;20556;-53
2022/01/15 00:04:47;;;;;;;15.33;6.90;;;0.10;99.90;;;;;;5046071;28;20485;-53
2022/01/15 00:07:13;;;;;;;11.97;5.93;;;0.10;99.90;;;;;;5043911;28;20585;-53
2022/01/15 00:09:42;;;;;;;20.10;7.27;;;0.00;99.90;;;;;;5046545;28;20515;-53
2022/01/15 00:12:10;;;;;;;19.23;7.20;;;0.10;99.90;;;;;;5047346;28;20489;-53
2022/01/15 00:14:40;;;;;;;22.67;9.93;;;0.10;99.90;;;;;;5044607;28;20559;-53
2022/01/15 00:17:15;;;;;;;25.73;10.70;;;0.10;99.90;;;;;;5045448;28;20477;-53
2022/01/15 00:19:43;;;;;;;20.70;7.60;;;0.10;99.90;;;;;;5048201;28;20497;-53
2022/01/15 00:22:11;;;;;;;16.70;7.40;;;0.10;99.90;;;;;;5047745;28;20496;-53
2022/01/15 00:24:39;;;;;;;23.60;8.10;;;0.10;99.90;;;;;;5045687;28;20974;-53
2022/01/15 00:27:06;;;;;;;12.57;7.23;;;0.00;99.90;;;;;;5044372;28;21113;-53
2022/01/15 00:29:33;;;;;;;18.20;7.63;;;0.00;99.90;;;;;;5047294;28;20489;-53
2022/01/15 00:32:00;;;;;;;17.17;7.97;;;0.00;99.90;;;;;;5046339;28;20525;-53
2022/01/15 00:34:29;;;;;;;19.97;8.33;;;0.00;99.90;;;;;;5045985;28;20493;-53
2022/01/15 00:36:56;;;;;;;17.33;9.03;;;0.00;99.90;;;;;;5043911;28;20520;-53
2022/01/15 00:39:23;;;;;;;15.33;7.53;;;0.00;99.90;;;;;;5047393;28;20515;-53
2022/01/15 00:41:50;;;;;;;19.23;8.67;;;0.00;99.90;;;;;;5048536;28;20895;-54
2022/01/15 00:44:18;;;;;;;22.50;7.80;;;0.00;99.90;;;;;;5045413;28;20453;-54
2022/01/15 00:46:44;;;;;;;19.27;8.03;;;0.00;99.90;;;;;;5044713;28;20618;-54
2022/01/15 00:49:11;;;;;;;29.40;7.53;;;0.00;99.90;;;;;;5048215;28;21387;-53
2022/01/15 00:51:40;;;;;;;19.33;8.03;;;-0.10;99.90;;;;;;5044110;28;20561;-54
2022/01/15 00:54:07;;;;;;;22.20;8.90;;;-0.10;99.90;;;;;;5045348;28;20458;-53
2022/01/15 00:56:33;;;;;;;20.77;7.73;;;-0.10;99.90;;;;;;5045084;28;20552;-52
2022/01/15 00:59:00;;;;;;;17.70;7.77;;;-0.10;99.90;;;;;;5046800;28;20588;-53
2022/01/15 01:01:27;;;;;;;15.53;7.60;;;-0.10;99.90;;;;;;5046757;28;20561;-53
2022/01/15 01:03:54;;;;;;;17.30;6.83;;;-0.10;99.90;;;;;;5051430;28;21002;-53
2022/01/15 01:06:21;;;;;;;17.00;6.73;;;-0.10;99.90;;;;;;5049454;28;20486;-53
2022/01/15 01:08:48;;;;;;;11.13;6.00;;;-0.10;99.90;;;;;;5043992;28;20486;-54
2022/01/15 01:11:18;;;;;;;14.70;6.50;;;-0.10;99.90;;;;;;5046093;28;20533;-53
2022/01/15 01:24:46;;;;;;;14.87;6.60;;;-0.20;99.90;;;;;;5020282;28;20450;-54
2022/01/15 01:27:18;;;;;;;11.83;5.87;;;-0.10;99.90;;;;;;5044778;28;20569;-54
2022/01/15 01:30:03;;;;;;;12.13;6.03;;;-0.20;99.90;;;;;;5044310;28;20551;-53
2022/01/15 01:32:42;;;;;;;12.83;6.20;;;-0.20;99.90;;;;;;5044785;28;20853;-53
2022/01/15 01:35:13;;;;;;;17.13;6.50;;;-0.30;99.90;;;;;;5043021;28;20565;-54
2022/01/15 01:37:44;;;;;;;15.80;5.97;;;-0.30;99.90;;;;;;5046545;28;20486;-52
2022/01/15 01:40:21;;;;;;;17.97;6.07;;;-0.30;99.90;;;;;;5044537;28;20472;-54
2022/01/15 01:43:01;;;;;;;15.07;5.90;;;-0.30;99.90;;;;;;5046825;28;20533;-53
2022/01/15 01:45:28;;;;;;;15.23;5.73;;;-0.30;99.90;;;;;;5041770;28;22491;-53
2022/01/15 01:47:54;;;;;;;18.30;6.27;;;-0.30;99.90;;;;;;5045276;28;20904;-53
2022/01/15 01:50:25;;;;;;;21.20;6.73;;;-0.30;99.90;;;;;;5040549;28;20461;-54
2022/01/15 01:52:55;;;;;;;15.87;5.60;;;-0.30;99.90;;;;;;5046019;28;21014;-53
2022/01/15 01:55:24;;;;;;;22.47;6.00;;;-0.30;99.90;;;;;;5044422;28;20564;-54
2022/01/15 01:57:52;;;;;;;21.70;5.87;;;-0.30;99.90;;;;;;5043564;28;20561;-53
2022/01/15 02:00:19;;;;;;;14.10;5.23;;;-0.40;99.90;;;;;;5042770;28;20544;-53
2022/01/15 02:02:46;;;;;;;13.13;5.50;;;-0.40;99.90;;;;;;5044206;28;20977;-54
2022/01/15 02:05:13;;;;;;;19.13;6.10;;;-0.40;99.90;;;;;;5043561;28;20557;-53
2022/01/15 02:07:41;;;;;;;13.57;5.10;;;-0.50;99.90;;;;;;5043398;28;20939;-53
2022/01/15 02:10:09;;;;;;;13.13;5.03;;;-0.50;99.90;;;;;;5044946;28;20507;-53
2022/01/15 02:12:37;;;;;;;11.90;4.50;;;-0.50;99.90;;;;;;5042973;28;20531;-53
2022/01/15 02:15:09;;;;;;;8.30;4.20;;;-0.50;99.90;;;;;;5043910;28;20820;-53
2022/01/15 02:17:36;;;;;;;14.77;6.53;;;-0.50;99.90;;;;;;5044948;28;20527;-54
2022/01/15 02:20:24;;;;;;;11.90;4.30;;;-0.50;99.90;;;;;;5053002;28;20532;-54
2022/01/15 02:25:47;;;;;;;20.30;6.47;;;-0.60;99.90;;;;;;5053730;28;20456;-53
2022/01/15 02:28:14;;;;;;;19.07;6.20;;;-0.60;99.90;;;;;;5052178;28;20504;-54
2022/01/15 02:30:41;;;;;;;16.43;4.83;;;-0.60;99.90;;;;;;5053713;28;21038;-53
2022/01/15 02:33:09;;;;;;;15.30;5.87;;;-0.60;99.90;;;;;;5052536;28;20489;-54
2022/01/15 02:35:37;;;;;;;13.50;5.10;;;-0.60;99.90;;;;;;5045266;28;20542;-54
2022/01/15 02:38:05;;;;;;;10.47;4.67;;;-0.60;99.90;;;;;;5052890;28;20516;-55
2022/01/15 02:40:33;;;;;;;15.83;4.87;;;-0.70;99.90;;;;;;5051723;28;20535;-54
2022/01/15 02:43:03;;;;;;;26.87;6.00;;;-0.70;99.90;;;;;;5049847;28;20543;-55
2022/01/15 02:45:32;;;;;;;16.77;5.80;;;-0.70;99.90;;;;;;5049680;28;20457;-55
2022/01/15 02:48:01;;;;;;;11.80;4.37;;;-0.70;99.90;;;;;;5050632;28;21029;-54
2022/01/15 02:50:27;;;;;;;14.43;5.20;;;-0.60;99.90;;;;;;5050878;28;20458;-54
2022/01/15 02:52:55;;;;;;;13.73;4.87;;;-0.60;99.90;;;;;;5051373;28;21236;-54
2022/01/15 02:55:22;;;;;;;18.10;4.93;;;-0.60;99.90;;;;;;5050566;28;21038;-54
2022/01/15 02:57:48;;;;;;;20.60;6.07;;;-0.60;99.90;;;;;;5048974;28;20612;-54
2022/01/15 03:00:16;;;;;;;11.37;4.20;;;-0.60;99.90;;;;;;5050986;28;20491;-54
2022/01/15 03:02:42;;;;;;;20.20;4.63;;;-0.70;99.90;;;;;;5050662;28;20521;-54
2022/01/15 03:05:10;;;;;;;15.60;5.03;;;-0.70;99.90;;;;;;5049671;28;20582;-55
2022/01/15 03:07:37;;;;;;;19.50;4.83;;;-0.70;99.90;;;;;;5050474;28;20532;-55
2022/01/15 03:10:06;;;;;;;12.40;4.67;;;-0.70;99.90;;;;;;5050717;28;20465;-54
2022/01/15 03:12:32;;;;;;;11.83;4.43;;;-0.70;99.90;;;;;;5051344;28;20537;-54
2022/01/15 03:15:02;;;;;;;21.20;4.67;;;-0.70;99.90;;;;;;5050019;28;20461;-55
2022/01/15 03:17:28;;;;;;;18.43;5.23;;;-0.70;99.90;;;;;;5052031;28;20504;-54
2022/01/15 03:19:55;;;;;;;13.00;4.40;;;-0.70;99.90;;;;;;5048113;28;20536;-54
2022/01/15 03:22:22;;;;;;;13.50;4.60;;;-0.70;99.90;;;;;;5049420;28;20556;-54
2022/01/15 03:24:49;;;;;;;19.70;6.07;;;-0.70;99.90;;;;;;5051019;28;20458;-54
2022/01/15 03:27:17;;;;;;;18.83;6.00;;;-0.80;99.90;;;;;;5047489;28;21010;-55
2022/01/15 03:29:44;;;;;;;18.40;4.73;;;-0.70;99.90;;;;;;5047635;28;20488;-54
2022/01/15 03:32:10;;;;;;;13.90;4.33;;;-0.70;99.90;;;;;;5044903;28;20496;-55
2022/01/15 03:34:37;;;;;;;17.33;4.77;;;-0.70;99.90;;;;;;5046026;28;21015;-55
2022/01/15 03:37:04;;;;;;;12.37;4.93;;;-0.60;99.90;;;;;;5048383;28;20488;-54
2022/01/15 03:39:30;;;;;;;19.10;4.87;;;-0.60;99.90;;;;;;5047747;28;20889;-54
2022/01/15 03:41:57;;;;;;;16.17;4.80;;;-0.60;99.90;;;;;;5047849;28;20485;-54
2022/01/15 03:44:25;;;;;;;10.70;4.50;;;-0.60;99.90;;;;;;5048969;28;20555;-55
2022/01/15 03:46:51;;;;;;;16.00;4.27;;;-0.60;99.90;;;;;;5043992;28;20566;-54
2022/01/15 03:49:18;;;;;;;12.30;4.47;;;-0.70;99.90;;;;;;5046901;28;20543;-54
2022/01/15 03:51:45;;;;;;;11.90;5.13;;;-0.70;99.90;;;;;;5043995;28;20544;-55
2022/01/15 03:54:11;;;;;;;15.67;4.33;;;-0.70;99.90;;;;;;5046274;28;20577;-54
2022/01/15 03:56:38;;;;;;;15.53;5.03;;;-0.60;99.90;;;;;;5044395;28;20561;-54
2022/01/15 03:59:04;;;;;;;16.37;6.00;;;-0.60;99.90;;;;;;5045653;28;20560;-54
2022/01/15 04:01:32;;;;;;;15.57;4.63;;;-0.60;99.90;;;;;;5046502;28;20556;-59
2022/01/15 04:03:59;;;;;;;16.73;5.00;;;-0.50;99.90;;;;;;5043296;28;20557;-57
2022/01/15 04:06:25;;;;;;;18.90;4.40;;;-0.50;99.90;;;;;;5044636;28;20624;-56
2022/01/15 04:08:52;;;;;;;14.20;4.50;;;-0.50;99.90;;;;;;5047624;28;20569;-57
2022/01/15 04:11:18;;;;;;;11.40;4.50;;;-0.40;99.90;;;;;;5046451;28;20570;-57
2022/01/15 04:13:45;;;;;;;17.03;5.10;;;-0.40;99.90;;;;;;5046300;28;20933;-56
2022/01/15 04:16:11;;;;;;;16.77;4.80;;;-0.40;99.90;;;;;;5044072;28;20891;-58
2022/01/15 04:18:41;;;;;;;15.40;5.30;;;-0.40;99.90;;;;;;5044399;28;20601;-57
2022/01/15 04:21:10;;;;;;;14.00;4.67;;;-0.30;99.90;;;;;;5045023;28;20463;-57
2022/01/15 04:23:36;;;;;;;14.57;4.93;;;-0.20;99.90;;;;;;5045900;28;20458;-56
2022/01/15 04:26:04;;;;;;;13.03;4.27;;;-0.10;99.90;;;;;;5043652;28;20539;-56
2022/01/15 04:28:32;;;;;;;14.97;4.43;;;-0.10;99.90;;;;;;5046297;28;20607;-56
2022/01/15 04:31:04;;;;;;;16.00;4.67;;;0.00;99.90;;;;;;5042581;28;20904;-57
2022/01/15 04:33:32;;;;;;;31.10;4.93;;;0.00;99.90;;;;;;5051066;28;20939;-56
2022/01/15 04:36:00;;;;;;;24.67;5.03;;;0.10;99.90;;;;;;5047560;28;20970;-56
2022/01/15 04:38:27;;;;;;;20.37;5.17;;;0.10;99.90;;;;;;5044917;28;21003;-56
2022/01/15 04:40:54;;;;;;;17.50;5.07;;;0.20;99.90;;;;;;5046950;28;20472;-57
2022/01/15 04:43:20;;;;;;;25.93;5.80;;;0.20;99.90;;;;;;5046068;28;20525;-56
2022/01/15 04:45:47;;;;;;;25.90;5.93;;;0.30;99.90;;;;;;5043789;28;20548;-57
2022/01/15 04:48:13;;;;;;;18.93;5.87;;;0.40;99.90;;;;;;5051211;22;20541;-56
2022/01/15 04:50:40;;;;;;;18.20;4.93;;;0.50;99.90;;;;;;5025334;28;20558;-56
2022/01/15 04:53:09;;;;;;;17.73;5.47;;;0.60;99.90;;;;;;5025880;28;20617;-56
2022/01/15 04:55:36;;;;;;;30.57;6.37;;;0.60;99.90;;;;;;5024806;28;20465;-55
2022/01/15 04:58:03;;;;;;;21.67;5.20;;;0.70;99.90;;;;;;5023014;28;20573;-56
2022/01/15 05:00:30;;;;;;;19.33;5.10;;;0.70;99.90;;;;;;5025023;28;20552;-56
2022/01/15 05:02:57;;;;;;;22.43;6.20;;;0.70;99.90;;;;;;5026805;28;20542;-56
2022/01/15 05:05:23;;;;;;;22.93;6.77;;;0.70;99.90;;;;;;5025389;28;20549;-56
2022/01/15 05:07:51;;;;;;;19.87;5.10;;;0.80;99.90;;;;;;5024462;28;20574;-56
2022/01/15 05:10:23;;;;;;;19.13;4.50;;;0.70;99.90;;;;;;5025636;28;20463;-56
2022/01/15 05:12:50;;;;;;;16.20;4.33;;;0.80;99.90;;;;;;5025788;28;20501;-56
2022/01/15 05:15:18;;;;;;;17.27;3.87;;;0.80;99.90;;;;;;5025510;28;20540;-57
2022/01/15 05:17:46;;;;;;;9.07;4.37;;;0.80;99.90;;;;;;5024413;28;20609;-55
2022/01/15 05:20:16;;;;;;;7.50;3.30;;;0.80;99.90;;;;;;5025635;28;20561;-55
2022/01/15 05:22:43;;;;;;;11.93;4.00;;;0.80;99.90;;;;;;5024527;28;20461;-56
2022/01/15 05:25:13;;;;;;;8.70;3.70;;;0.80;99.90;;;;;;5026442;28;20567;-57
2022/01/15 05:27:41;;;;;;;11.83;3.83;;;0.80;99.90;;;;;;5024934;28;20455;-56
2022/01/15 05:30:09;;;;;;;16.97;3.57;;;0.80;99.90;;;;;;5026940;28;20561;-56
2022/01/15 05:32:35;;;;;;;9.60;3.73;;;0.80;99.90;;;;;;5027223;28;20549;-56
2022/01/15 05:35:02;;;;;;;4.07;3.00;;;0.90;99.90;;;;;;5024598;28;20589;-56
2022/01/15 05:37:29;;;;;;;10.83;3.30;;;0.80;99.90;;;;;;5025793;28;20554;-54
2022/01/15 05:39:56;;;;;;;22.17;3.60;;;0.90;99.90;;;;;;5027842;28;20516;-56
2022/01/15 05:42:23;;;;;;;27.10;2.73;;;0.90;99.90;;;;;;5028874;28;20545;-55
2022/01/15 05:44:50;;;;;;;45.63;3.43;;;0.90;99.90;;;;;;5026527;28;20455;-56
2022/01/15 05:47:17;;;;;;;4.30;2.90;;;0.90;99.90;;;;;;5024146;28;20558;-55
2022/01/15 05:49:44;;;;;;;11.33;3.73;;;0.90;99.90;;;;;;5023283;28;20598;-54
2022/01/15 05:52:10;;;;;;;8.30;3.37;;;0.90;99.90;;;;;;5026724;28;20598;-56
2022/01/15 05:54:37;;;;;;;14.90;2.70;;;0.90;99.90;;;;;;5024417;28;21091;-56
2022/01/15 05:57:04;;;;;;;8.03;2.77;;;0.90;99.90;;;;;;5024746;28;20585;-55
2022/01/15 05:59:30;;;;;;;6.23;3.27;;;0.90;99.90;;;;;;5024791;28;20562;-55
2022/01/15 06:01:58;;;;;;;26.33;3.83;;;0.90;99.90;;;;;;5026152;28;20550;-57
2022/01/15 06:04:25;;;;;;;7.67;3.50;;;0.90;99.90;;;;;;5019641;28;20532;-56
2022/01/15 06:06:51;;;;;;;8.13;3.07;;;0.90;99.90;;;;;;5024251;28;20486;-55
2022/01/15 06:09:18;;;;;;;8.50;3.50;;;1.00;99.90;;;;;;5023211;28;21351;-55
2022/01/15 06:11:45;;;;;;;29.80;3.60;;;1.00;99.90;;;;;;5025296;28;20530;-55
2022/01/15 06:14:11;;;;;;;20.17;3.17;;;0.90;99.90;;;;;;5025821;28;20483;-56
2022/01/15 06:16:38;;;;;;;6.43;2.80;;;0.90;99.90;;;;;;5024063;28;20561;-56
2022/01/15 06:19:06;;;;;;;26.80;3.33;;;0.80;99.90;;;;;;5023892;28;20963;-55
2022/01/15 06:21:32;;;;;;;21.13;3.20;;;0.80;99.90;;;;;;5024305;28;20904;-56
2022/01/15 06:23:59;;;;;;;15.03;3.03;;;0.80;99.90;;;;;;5024411;28;20555;-56
2022/01/15 06:26:25;;;;;;;14.03;3.67;;;0.90;99.90;;;;;;5025585;28;21115;-56
2022/01/15 06:28:52;;;;;;;12.93;2.63;;;0.90;99.90;;;;;;5025773;28;21071;-55
2022/01/15 06:31:18;;;;;;;10.40;3.70;;;0.90;99.90;;;;;;5025553;28;20487;-56
2022/01/15 06:33:45;;;;;;;27.87;3.90;;;0.90;99.90;;;;;;5025414;28;20576;-55
2022/01/15 06:36:13;;;;;;;20.17;2.90;;;0.90;99.90;;;;;;5022940;28;20554;-55
2022/01/15 06:38:39;;;;;;;5.50;3.17;;;0.90;99.90;;;;;;5023745;28;20578;-56
2022/01/15 06:41:06;;;;;;;28.40;3.30;;;1.00;99.90;;;;;;5024861;28;20565;-55
2022/01/15 06:43:33;;;;;;;14.43;4.07;;;0.90;99.90;;;;;;5024497;28;20487;-56
2022/01/15 06:45:59;;;;;;;4.93;3.33;;;1.00;99.90;;;;;;5025185;28;20545;-56
2022/01/15 06:48:26;;;;;;;20.87;3.40;;;0.90;99.90;;;;;;5024593;28;20582;-56
2022/01/15 06:50:53;;;;;;;5.20;3.47;;;1.00;99.90;;;;;;5024166;28;20466;-56
2022/01/15 06:53:21;;;;;;;4.77;3.17;;;0.90;99.90;;;;;;5025169;28;20553;-56
2022/01/15 06:55:50;;;;;;;7.63;4.43;;;1.00;99.90;;;;;;5022858;28;20593;-56
2022/01/15 06:58:17;;;;;;;17.37;4.47;;;1.00;99.90;;;;;;5020582;28;20502;-56
2022/01/15 07:00:43;;;;;;;14.33;4.37;;;1.00;99.90;;;;;;5028999;28;20487;-56
2022/01/15 07:03:10;;;;;;;24.20;4.50;;;1.00;99.90;;;;;;5027251;28;21040;-55
2022/01/15 07:05:36;;;;;;;13.63;4.90;;;1.00;99.90;;;;;;5026286;28;20558;-56
2022/01/15 07:08:03;;;;;;;10.13;4.70;;;1.00;99.90;;;;;;5028134;28;21074;-55
2022/01/15 07:10:31;;;;;;;15.63;4.73;;;1.00;99.90;;;;;;5028061;28;20549;-56
2022/01/15 07:12:58;;;;;;;16.23;4.23;;;1.00;99.90;;;;;;5028610;28;21023;-55
2022/01/15 07:15:24;;;;;;;14.57;5.03;;;1.00;99.90;;;;;;5028606;28;20932;-57
2022/01/15 07:17:51;;;;;;;8.97;4.30;;;1.00;99.90;;;;;;5028988;28;20570;-56
2022/01/15 07:20:20;;;;;;;12.03;4.40;;;1.00;99.90;;;;;;5027468;28;20549;-55
2022/01/15 07:22:48;;;;;;;17.80;5.20;;;1.10;99.90;;;;;;5026915;28;20467;-57
2022/01/15 07:25:14;;;;;;;11.20;4.90;;;1.10;99.90;;;;;;5028083;28;21134;-57
2022/01/15 07:27:43;;;;;;;10.00;4.53;;;1.00;99.90;;;;;;5031017;28;20555;-56
2022/01/15 07:30:12;;;;;;;13.10;3.40;;;0.80;99.90;;;;;;5026409;28;20458;-56
2022/01/15 07:32:40;;;;;;;6.07;3.53;;;0.90;99.90;;;;;;5027659;28;20462;-55
2022/01/15 07:35:08;;;;;;;9.17;4.50;;;1.00;99.90;;;;;;5028095;28;21097;-55
2022/01/15 07:37:35;;;;;;;10.90;4.63;;;1.00;99.90;;;;;;5028021;28;20562;-56
2022/01/15 07:40:03;;;;;;;8.60;3.47;;;1.00;99.90;;;;;;5027830;28;20558;-55
2022/01/15 07:42:35;;;;;;;8.97;4.43;;;1.00;99.90;;;;;;5027682;28;21012;-56
2022/01/15 07:45:03;;;;;;;8.80;4.60;;;1.10;99.90;;;;;;5026371;28;20549;-56
2022/01/15 07:47:30;;;;;;;22.60;4.83;;;0.90;99.90;;;;;;5026390;28;20571;-56
2022/01/15 07:49:56;;;;;;;6.20;3.77;;;1.00;99.90;;;;;;5025424;28;20554;-56
2022/01/15 07:52:23;;;;;;;10.00;4.72;;;1.00;99.90;;;;;;5027259;28;20453;-56
2022/01/15 07:54:50;;;;;;;11.10;4.20;;;1.00;99.90;;;;;;5027703;28;20228;-56
2022/01/15 07:57:16;;;;;;;29.17;4.93;;;1.00;99.90;;;;;;5027712;28;20465;-56
2022/01/15 07:59:43;;;;;;;16.37;4.50;;;1.10;99.90;;;;;;5025691;28;20597;-59
2022/01/15 08:02:11;;;;;;;20.20;4.40;;;1.10;99.90;;;;;;5023916;28;20582;-56
2022/01/15 08:04:37;;;;;;;7.37;4.10;;;1.00;99.90;;;;;;5027471;28;20550;-56
2022/01/15 08:07:04;;;;;;;13.33;6.00;;;1.00;99.90;;;;;;5024322;28;20495;-57
2022/01/15 08:09:30;;;;;;;9.43;5.43;;;1.00;99.90;;;;;;5026211;28;20578;-56
2022/01/15 08:11:57;;;;;;;13.23;6.43;;;1.00;99.90;;;;;;5026420;28;20562;-56
2022/01/15 08:14:24;;;;;;;11.87;5.00;;;1.00;99.90;;;;;;5026178;28;20514;-57
2022/01/15 08:16:50;;;;;;;22.37;8.77;;;0.90;99.90;;;;;;5023858;28;20520;-56
2022/01/15 08:19:18;;;;;;;15.57;6.53;;;0.80;99.90;;;;;;5025819;28;20590;-57
2022/01/15 08:21:44;;;;;;;20.37;7.40;;;0.80;99.90;;;;;;5026143;28;20554;-58
2022/01/15 08:24:11;;;;;;;21.37;6.17;;;0.90;99.90;;;;;;5028437;28;20459;-57
2022/01/15 08:26:38;;;;;;;10.90;5.00;;;0.90;99.90;;;;;;5029510;28;20554;-57
2022/01/15 08:29:05;;;;;;;11.67;6.43;;;0.90;99.90;;;;;;5023900;28;20487;-57
2022/01/15 08:31:32;;;;;;;15.87;6.40;;;1.00;99.90;;;;;;5029790;28;20595;-57
2022/01/15 08:33:59;;;;;;;6.77;4.33;;;1.00;99.90;;;;;;5034648;28;20549;-57
2022/01/15 08:36:27;;;;;;;8.47;4.50;;;1.00;99.90;;;;;;5026145;28;20462;-57
2022/01/15 08:38:54;;;;;;;20.97;4.30;;;1.00;99.90;;;;;;5023630;28;21017;-57
2022/01/15 08:41:20;;;;;;;11.10;4.40;;;0.90;99.90;;;;;;5022325;28;20562;-56
2022/01/15 08:43:47;;;;;;;7.20;4.20;;;0.90;99.90;;;;;;5018653;28;20554;-56
2022/01/15 08:46:14;;;;;;;22.80;4.40;;;0.90;99.90;;;;;;5023479;28;20964;-56
2022/01/15 08:48:40;;;;;;;8.07;4.97;;;1.00;99.90;;;;;;5024558;28;20566;-56
2022/01/15 08:51:07;;;;;;;36.57;6.03;;;1.10;99.90;;;;;;5022548;28;20546;-56
2022/01/15 08:53:35;;;;;;;18.77;6.73;;;1.00;99.90;;;;;;5023973;28;22310;-57
2022/01/15 08:56:03;;;;;;;10.87;5.00;;;1.00;99.90;;;;;;5022662;28;20488;-56
2022/01/15 08:58:30;;;;;;;6.03;3.87;;;0.90;99.90;;;;;;5022673;28;20548;-56
2022/01/15 09:00:57;;;;;;;8.23;4.60;;;1.00;99.90;;;;;;5024282;28;20562;-56
2022/01/15 09:03:26;;;;;;;7.37;3.97;;;1.00;99.90;;;;;;5025822;28;20568;-56
2022/01/15 09:05:53;;;;;;;7.20;4.53;;;1.10;99.90;;;;;;5024307;28;20550;-56
2022/01/15 09:08:24;;;;;;;9.87;4.87;;;1.00;99.90;;;;;;5023172;28;20570;-56
2022/01/15 09:10:52;;;;;;;13.83;4.83;;;1.00;99.90;;;;;;5023245;28;20459;-56
2022/01/15 09:13:19;;;;;;;7.10;4.47;;;1.00;99.90;;;;;;5024265;28;20507;-57
2022/01/15 09:15:46;;;;;;;14.67;5.57;;;1.10;99.90;;;;;;5022843;28;20493;-56
2022/01/15 09:18:15;;;;;;;18.43;5.90;;;1.00;99.90;;;;;;5022108;28;20483;-57
2022/01/15 09:20:41;;;;;;;25.70;9.93;;;1.00;99.90;;;;;;5023395;28;20979;-57
2022/01/15 09:23:08;;;;;;;12.53;6.80;;;1.00;99.90;;;;;;5021835;28;20557;-57
2022/01/15 09:25:35;;;;;;;12.10;5.03;;;1.00;99.90;;;;;;5024438;28;20865;-56
2022/01/15 09:30:47;;;;;;;31.80;10.83;;;0.90;99.90;;;;;;5023883;28;20449;-56
2022/01/15 09:33:15;;;;;;;20.80;7.73;;;1.00;99.90;;;;;;5025015;28;20593;-56
2022/01/15 09:35:42;;;;;;;24.10;9.07;;;1.00;99.90;;;;;;5024802;28;20593;-57
2022/01/15 09:38:08;;;;;;;47.30;13.67;;;1.00;99.90;;;;;;5025456;28;20577;-56
2022/01/15 09:40:36;;;;;;;36.60;10.40;;;1.10;99.90;;;;;;5025851;28;20498;-56
2022/01/15 09:43:04;;;;;;;18.93;5.60;;;1.10;99.90;;;;;;5025851;28;20889;-56
2022/01/15 09:45:34;;;;;;;53.17;10.53;;;1.10;99.90;;;;;;5026882;28;20494;-57
2022/01/15 09:48:02;;;;;;;12.40;6.87;;;1.10;99.90;;;;;;5021466;28;21012;-56
2022/01/15 09:50:30;;;;;;;11.87;6.23;;;1.10;99.90;;;;;;5023364;28;20557;-56
2022/01/15 09:52:58;;;;;;;15.90;7.80;;;1.20;99.90;;;;;;5022404;28;20554;-56
2022/01/15 09:55:25;;;;;;;16.33;7.73;;;1.10;99.90;;;;;;5020275;28;20486;-57
2022/01/15 09:57:52;;;;;;;12.30;4.97;;;1.30;99.90;;;;;;5020887;28;20475;-56
2022/01/15 10:00:22;;;;;;;8.63;5.53;;;1.20;99.90;;;;;;5028103;28;20597;-57
2022/01/15 10:02:51;;;;;;;10.63;5.20;;;1.20;99.90;;;;;;5025690;28;20462;-57
2022/01/15 10:05:19;;;;;;;9.10;5.60;;;1.20;99.90;;;;;;5022052;28;20592;-56
2022/01/15 10:07:57;;;;;;;12.20;6.10;;;1.20;99.90;;;;;;5021505;28;20593;-56
2022/01/15 10:10:25;;;;;;;10.27;5.60;;;1.20;99.90;;;;;;5021494;28;20498;-57
2022/01/15 10:12:52;;;;;;;13.20;5.50;;;1.30;99.90;;;;;;5020422;28;20575;-56
2022/01/15 10:15:20;;;;;;;36.40;5.70;;;1.30;99.90;;;;;;5022644;28;20581;-58
2022/01/15 10:17:47;;;;;;;21.43;6.40;;;1.30;99.90;;;;;;5021802;28;20586;-55
2022/01/15 10:20:15;;;;;;;12.30;5.87;;;1.40;99.90;;;;;;5014728;28;21078;-57
2022/01/15 10:22:44;;;;;;;9.50;5.03;;;1.40;99.90;;;;;;5021574;28;20972;-56
2022/01/15 10:25:16;;;;;;;12.10;5.47;;;1.30;99.90;;;;;;5024639;28;20494;-56
2022/01/15 10:27:44;;;;;;;9.80;4.90;;;1.30;99.90;;;;;;5023020;28;22239;-56
2022/01/15 10:30:13;;;;;;;9.60;4.80;;;1.20;99.90;;;;;;5021976;28;21044;-55
2022/01/15 10:32:55;;;;;;;11.50;5.87;;;1.30;99.90;;;;;;5021656;28;20554;-54
2022/01/15 10:35:23;;;;;;;11.90;5.13;;;1.30;99.90;;;;;;5020649;28;20605;-55
2022/01/15 10:37:52;;;;;;;11.73;5.17;;;1.30;99.90;;;;;;5027572;28;20493;-54
2022/01/15 10:40:22;;;;;;;7.97;5.20;;;1.30;99.90;;;;;;5024158;28;20486;-56
2022/01/15 10:42:56;;;;;;;13.40;5.60;;;1.30;99.90;;;;;;5026607;28;20458;-55
2022/01/15 10:45:24;;;;;;;10.40;5.13;;;1.20;20.20;;;;;;5022298;28;20541;-56
2022/01/15 10:47:55;;;;;;;9.93;5.07;;;1.30;99.90;;;;;;5028698;28;20565;-56
2022/01/15 10:50:24;;;;;;;8.70;4.57;;;1.30;99.90;;;;;;5053542;22;20904;-52
2022/01/15 10:52:52;;;;;;;7.53;5.50;;;1.30;99.90;;;;;;5045779;28;20492;-52
2022/01/15 10:55:25;;;;;;;12.57;5.53;;;1.10;67.80;;;;;;5051139;28;21105;-52
2022/01/15 10:57:55;;;;;;;10.50;5.80;;;1.20;22.90;;;;;;5047008;28;20541;-52
2022/01/15 11:00:24;;;;;;;9.97;5.67;;;1.30;99.90;;;;;;5046430;28;20568;-53
2022/01/15 11:02:55;;;;;;;11.40;5.53;;;1.30;99.90;;;;;;5049639;28;20541;-53
2022/01/15 11:05:25;;;;;;;12.80;6.07;;;1.40;99.90;;;;;;5046011;28;20523;-52
2022/01/15 11:07:53;;;;;;;12.47;6.87;;;1.40;99.90;;;;;;5044731;28;20480;-52
2022/01/15 11:10:20;;;;;;;17.30;6.30;;;1.40;99.90;;;;;;5048628;28;20524;-51
2022/01/15 11:12:46;;;;;;;17.90;6.83;;;1.50;99.90;;;;;;5055880;28;20457;-53
2022/01/15 11:15:13;;;;;;;20.70;6.50;;;1.60;82.00;;;;;;5042936;28;20486;-54
2022/01/15 11:17:40;;;;;;;17.03;7.00;;;1.50;50.80;;;;;;5041762;28;21004;-53
2022/01/15 11:20:11;;;;;;;14.47;6.77;;;1.50;24.20;;;;;;5050009;28;20485;-52
2022/01/15 11:22:38;;;;;;;19.93;6.10;;;1.50;27.00;;;;;;5045716;28;20580;-52
2022/01/15 11:25:05;;;;;;;19.67;7.90;;;1.50;24.10;;;;;;5047627;28;20552;-53
2022/01/15 11:27:33;;;;;;;17.20;7.30;;;1.60;99.80;;;;;;5045597;28;20545;-52
2022/01/15 11:30:00;;;;;;;22.43;7.87;;;1.60;36.50;;;;;;5044605;28;20478;-52
2022/01/15 11:32:28;;;;;;;22.67;8.67;;;1.50;23.90;;;;;;5050198;28;20501;-52
2022/01/15 11:35:03;;;;;;;17.87;7.23;;;1.50;27.80;;;;;;5048708;28;20461;-52
2022/01/15 11:37:45;;;;;;;21.47;8.70;;;1.70;99.90;;;;;;5050403;28;20548;-52
2022/01/15 11:40:37;;;;;;;20.60;8.10;;;1.70;99.90;;;;;;5048629;28;20539;-52
2022/01/15 11:43:39;;;;;;;21.20;8.80;;;1.70;99.90;;;;;;5026978;28;20466;-52
2022/01/15 11:46:21;;;;;;;17.90;8.47;;;1.70;99.90;;;;;;5042477;28;20458;-52
2022/01/15 11:48:47;;;;;;;23.83;9.57;;;1.80;99.90;;;;;;5044322;28;20482;-52
2022/01/15 11:51:29;;;;;;;24.50;9.27;;;1.80;99.90;;;;;;5045249;28;20535;-52
2022/01/15 11:54:00;;;;;;;20.70;8.60;;;1.90;99.90;;;;;;5044597;28;20469;-53
2022/01/15 11:56:29;;;;;;;18.93;9.17;;;1.90;99.90;;;;;;5044397;28;20490;-53
2022/01/15 11:58:57;;;;;;;21.13;8.77;;;1.80;99.90;;;;;;5046127;28;20607;-53
2022/01/15 12:01:41;;;;;;;19.97;9.43;;;1.90;99.90;;;;;;5047207;28;20553;-52
2022/01/15 12:04:27;;;;;;;20.80;8.77;;;1.80;99.90;;;;;;5043206;28;20540;-53
2022/01/15 12:07:20;;;;;;;24.20;10.40;;;1.80;99.90;;;;;;5047392;28;20903;-52
2022/01/15 12:09:49;;;;;;;20.57;9.83;;;1.90;99.90;;;;;;5044219;28;20474;-53
2022/01/15 12:12:45;;;;;;;23.10;9.80;;;1.90;99.90;;;;;;5048942;28;20549;-51
2022/01/15 12:15:16;;;;;;;19.67;8.07;;;1.80;99.90;;;;;;5001864;28;20540;-52
2022/01/15 12:17:46;;;;;;;19.57;9.03;;;1.80;99.90;;;;;;5044322;28;20464;-53
2022/01/15 12:20:32;;;;;;;24.73;9.07;;;1.90;99.90;;;;;;5044276;28;20982;-53
2022/01/15 12:23:00;;;;;;;19.70;9.73;;;2.00;99.90;;;;;;5044775;28;20553;-52
2022/01/15 12:25:32;;;;;;;24.37;8.97;;;2.00;99.90;;;;;;5046482;28;20537;-52
2022/01/15 12:28:03;;;;;;;25.43;10.00;;;2.00;99.90;;;;;;5043536;28;20469;-53
2022/01/15 12:30:32;;;;;;;18.20;8.50;;;2.00;99.90;;;;;;5044968;28;20531;-52
2022/01/15 12:33:01;;;;;;;23.87;10.27;;;2.00;99.90;;;;;;5049997;28;20549;-53
2022/01/15 12:35:29;;;;;;;24.40;10.97;;;2.00;99.90;;;;;;5052578;28;20492;-52
2022/01/15 12:37:59;;;;;;;41.47;10.20;;;2.10;99.90;;;;;;5045798;28;20538;-52
2022/01/15 12:40:32;;;;;;;26.57;10.27;;;2.00;99.90;;;;;;5048865;28;21059;-53
2022/01/15 12:43:00;;;;;;;23.13;9.03;;;1.90;22.00;;;;;;5045498;28;20545;-52
2022/01/15 12:45:28;;;;;;;23.10;8.57;;;2.00;99.90;;;;;;5042418;28;20544;-52
2022/01/15 12:47:56;;;;;;;31.60;8.63;;;2.00;99.90;;;;;;5044438;28;20577;-54
2022/01/15 12:50:23;;;;;;;21.00;8.47;;;2.10;99.90;;;;;;5045933;28;20497;-52
2022/01/15 12:53:00;;;;;;;21.87;8.60;;;2.10;99.90;;;;;;5048781;28;20994;-53
2022/01/15 12:55:31;;;;;;;21.63;8.03;;;2.10;99.90;;;;;;5044640;28;20478;-52
2022/01/15 12:57:57;;;;;;;26.87;9.33;;;2.10;99.90;;;;;;5045304;28;20494;-52
2022/01/15 13:00:25;;;;;;;25.33;8.17;;;2.10;99.90;;;;;;5044739;28;22634;-51
2022/01/15 13:02:56;;;;;;;32.70;10.77;;;2.20;99.90;;;;;;5047479;28;21133;-52
2022/01/15 13:05:26;;;;;;;19.30;8.47;;;2.10;99.90;;;;;;5046951;28;20461;-51
2022/01/15 13:07:58;;;;;;;24.90;8.10;;;2.20;98.00;;;;;;5050060;28;20553;-53
2022/01/15 13:10:27;;;;;;;21.30;7.87;;;2.10;36.50;;;;;;5056912;28;20512;-53